createdAt,value
2023-04-17T00:00:08.649Z,21.23
2023-04-17T00:03:32.328Z,29.98
2023-04-17T00:06:35.925Z,23.45
2023-04-17T00:09:38.199Z,23.15
2023-04-17T00:12:41.889Z,25.05
2023-04-17T00:15:44.596Z,21.58
2023-04-17T00:18:47.189Z,19.25
2023-04-17T00:21:49.341Z,17.98
2023-04-17T00:24:52.324Z,18.13
2023-04-17T00:27:54.846Z,15.77
2023-04-17T00:30:59.136Z,14.35
2023-04-17T00:34:01.625Z,17.83
2023-04-17T00:37:04.827Z,18.30
2023-04-17T00:40:09.647Z,7.45
2023-04-17T00:43:12.394Z,10.52
2023-04-17T00:46:15.655Z,8.98
2023-04-17T00:49:19.783Z,9.83
2023-04-17T00:52:32.966Z,16.38
2023-04-17T00:55:38.606Z,14.07
2023-04-17T00:58:41.355Z,14.40
2023-04-17T01:01:44.858Z,15.52
2023-04-17T01:04:47.130Z,14.20
2023-04-17T01:07:49.864Z,18.73
2023-04-17T01:10:52.510Z,19.10
2023-04-17T01:13:55.311Z,19.02
2023-04-17T01:16:58.382Z,19.52
2023-04-17T01:20:01.174Z,15.02
2023-04-17T01:23:03.956Z,18.10
2023-04-17T01:26:06.522Z,15.75
2023-04-17T01:29:09.246Z,21.65
2023-04-17T01:32:12.296Z,25.55
2023-04-17T01:35:14.473Z,26.42
2023-04-17T01:38:17.110Z,19.52
2023-04-17T01:41:19.129Z,6.50
2023-04-17T01:44:21.857Z,16.92
2023-04-17T01:47:24.174Z,16.63
2023-04-17T01:50:27.821Z,20.08
2023-04-17T01:53:34.166Z,16.08
2023-04-17T01:56:37.076Z,24.73
2023-04-17T01:59:39.404Z,24.23
2023-04-17T02:02:42.633Z,17.63
2023-04-17T02:05:48.097Z,8.52
2023-04-17T02:08:51.055Z,5.25
2023-04-17T02:11:53.414Z,6.30
2023-04-17T02:15:01.338Z,13.02
2023-04-17T02:18:06.415Z,13.73
2023-04-17T02:21:10.952Z,6.47
2023-04-17T02:24:13.239Z,4.63
2023-04-17T02:27:15.816Z,5.15
2023-04-17T02:30:19.026Z,13.98
2023-04-17T02:33:21.900Z,10.93
2023-04-17T02:36:24.543Z,17.73
2023-04-17T02:39:27.965Z,14.10
2023-04-17T02:42:31.110Z,5.55
2023-04-17T02:45:35.098Z,13.25
2023-04-17T02:48:37.584Z,4.63
2023-04-17T02:51:40.408Z,6.13
2023-04-17T02:54:42.595Z,17.83
2023-04-17T02:57:46.711Z,9.83
2023-04-17T03:00:49.276Z,10.73
2023-04-17T03:03:53.878Z,4.10
2023-04-17T03:06:56.050Z,13.10
2023-04-17T03:09:59.512Z,10.95
2023-04-17T03:13:03.980Z,5.30
2023-04-17T03:16:08.801Z,10.00
2023-04-17T03:22:15.647Z,3.42
2023-04-17T03:25:17.909Z,5.35
2023-04-17T03:28:27.699Z,13.55
2023-04-17T03:31:30.889Z,14.85
2023-04-17T03:34:34.429Z,9.40
2023-04-17T03:37:36.506Z,9.18
2023-04-17T03:40:39.097Z,6.90
2023-04-17T03:43:41.661Z,8.50
2023-04-17T03:46:46.194Z,8.15
2023-04-17T03:49:48.587Z,5.35
2023-04-17T03:52:51.983Z,4.65
2023-04-17T03:55:55.244Z,8.65
2023-04-17T03:59:06.555Z,9.88
2023-04-17T04:02:14.132Z,11.40
2023-04-17T04:05:17.782Z,4.80
2023-04-17T04:08:21.402Z,5.70
2023-04-17T04:11:27.823Z,4.18
2023-04-17T04:14:31.021Z,5.90
2023-04-17T04:17:33.542Z,2.92
2023-04-17T04:20:37.795Z,7.43
2023-04-17T04:23:50.446Z,14.00
2023-04-17T04:26:55.795Z,12.63
2023-04-17T04:30:02.104Z,6.97
2023-04-17T04:33:08.986Z,5.28
2023-04-17T04:36:14.571Z,13.73
2023-04-17T04:39:20.740Z,18.48
2023-04-17T04:42:24.577Z,14.80
2023-04-17T04:45:44.222Z,16.85
2023-04-17T04:48:47.012Z,20.63
2023-04-17T04:51:49.444Z,19.55
2023-04-17T04:54:53.262Z,17.52
2023-04-17T04:57:55.703Z,16.63
2023-04-17T05:01:00.914Z,20.88
2023-04-17T05:04:11.885Z,16.60
2023-04-17T05:07:14.493Z,17.15
2023-04-17T05:10:20.133Z,20.05
2023-04-17T05:13:27.680Z,16.27
2023-04-17T05:16:30.289Z,17.50
2023-04-17T05:19:34.810Z,18.13
2023-04-17T05:22:40.914Z,18.83
2023-04-17T05:25:46.863Z,12.82
2023-04-17T05:28:49.817Z,5.45
2023-04-17T05:31:58.088Z,13.95
2023-04-17T05:35:16.963Z,19.83
2023-04-17T05:38:20.542Z,21.33
2023-04-17T05:41:22.980Z,20.60
2023-04-17T05:44:25.725Z,19.67
2023-04-17T05:47:28.101Z,24.05
2023-04-17T05:50:31.012Z,24.50
2023-04-17T05:53:33.723Z,25.70
2023-04-17T05:56:37.092Z,19.20
2023-04-17T05:59:39.270Z,29.77
2023-04-17T06:02:45.563Z,24.40
2023-04-17T06:05:55.589Z,22.50
2023-04-17T06:08:58.686Z,29.77
2023-04-17T06:12:01.492Z,20.15
2023-04-17T06:15:05.655Z,23.10
2023-04-17T06:18:08.578Z,16.58
2023-04-17T06:21:11.404Z,15.27
2023-04-17T06:24:13.860Z,10.10
2023-04-17T06:27:21.954Z,23.50
2023-04-17T06:30:24.515Z,13.30
2023-04-17T06:33:29.804Z,21.83
2023-04-17T06:36:33.558Z,21.20
2023-04-17T06:39:39.548Z,17.05
2023-04-17T06:42:41.978Z,21.73
2023-04-17T06:45:49.842Z,16.02
2023-04-17T06:48:52.567Z,7.47
2023-04-17T06:51:55.445Z,13.18
2023-04-17T06:54:59.926Z,12.55
2023-04-17T06:58:02.939Z,9.93
2023-04-17T07:01:05.158Z,15.07
2023-04-17T07:04:09.417Z,11.25
2023-04-17T07:07:12.307Z,11.63
2023-04-17T07:10:16.175Z,14.80
2023-04-17T07:13:19.992Z,9.05
2023-04-17T07:16:23.398Z,14.18
2023-04-17T07:19:26.060Z,13.93
2023-04-17T07:22:29.249Z,16.48
2023-04-17T07:25:31.324Z,12.38
2023-04-17T07:28:34.579Z,14.45
2023-04-17T07:31:37.147Z,10.55
2023-04-17T07:34:41.593Z,21.13
2023-04-17T07:37:44.059Z,21.13
2023-04-17T07:40:46.899Z,15.50
2023-04-17T07:43:49.194Z,21.20
2023-04-17T07:46:51.640Z,11.93
2023-04-17T07:49:53.898Z,10.90
2023-04-17T07:52:56.994Z,11.35
2023-04-17T07:55:59.691Z,14.48
2023-04-17T07:59:02.800Z,9.88
2023-04-17T08:02:09.218Z,11.32
2023-04-17T08:05:12.736Z,12.85
2023-04-17T08:08:16.250Z,10.95
2023-04-17T08:11:19.565Z,10.50
2023-04-17T08:14:22.403Z,10.50
2023-04-17T08:17:26.530Z,12.05
2023-04-17T08:20:28.613Z,5.60
2023-04-17T08:23:31.539Z,6.70
2023-04-17T08:26:33.792Z,8.05
2023-04-17T08:29:36.863Z,14.73
2023-04-17T08:32:45.275Z,16.45
2023-04-17T08:35:48.631Z,9.27
2023-04-17T08:38:52.550Z,15.52
2023-04-17T08:42:03.037Z,15.35
2023-04-17T08:45:09.512Z,14.77
2023-04-17T08:48:13.789Z,15.07
2023-04-17T08:51:16.442Z,18.95
2023-04-17T08:54:22.083Z,16.83
2023-04-17T08:57:24.712Z,13.40
2023-04-17T09:00:32.873Z,10.60
2023-04-17T09:03:46.767Z,17.90
2023-04-17T09:06:53.083Z,14.15
2023-04-17T09:09:56.975Z,17.55
2023-04-17T09:13:01.379Z,14.75
2023-04-17T09:16:09.517Z,12.70
2023-04-17T09:19:12.820Z,22.35
2023-04-17T09:22:22.473Z,12.95
2023-04-17T09:25:27.142Z,11.85
2023-04-17T09:28:30.323Z,10.98
2023-04-17T09:31:34.751Z,12.77
2023-04-17T09:34:43.227Z,10.23
2023-04-17T09:37:55.591Z,11.30
2023-04-17T09:40:58.070Z,11.18
2023-04-17T09:44:02.302Z,10.85
2023-04-17T09:47:05.427Z,11.43
2023-04-17T09:50:09.688Z,17.60
2023-04-17T09:53:11.733Z,12.37
2023-04-17T09:56:14.412Z,14.23
2023-04-17T09:59:16.828Z,15.10
2023-04-17T10:02:21.678Z,14.15
2023-04-17T10:08:31.797Z,12.53
2023-04-17T10:11:40.979Z,9.40
2023-04-17T10:14:48.545Z,11.10
2023-04-17T10:17:51.112Z,11.70
2023-04-17T10:20:55.778Z,11.95
2023-04-17T10:27:02.653Z,12.18
2023-04-17T10:30:07.444Z,11.80
2023-04-17T10:33:13.096Z,11.68
2023-04-17T10:36:41.191Z,12.55
2023-04-17T10:39:56.915Z,13.35
2023-04-17T10:43:07.616Z,11.07
2023-04-17T10:46:14.885Z,8.90
2023-04-17T10:49:17.272Z,12.93
2023-04-17T10:52:35.309Z,9.27
2023-04-17T10:55:50.071Z,9.27
2023-04-17T10:59:03.513Z,9.57
2023-04-17T11:02:07.887Z,9.15
2023-04-17T11:05:11.473Z,10.20
2023-04-17T11:08:14.209Z,10.95
2023-04-17T11:11:30.454Z,8.30
2023-04-17T11:14:43.610Z,9.63
2023-04-17T11:17:48.268Z,9.48
2023-04-17T11:20:50.516Z,12.23
2023-04-17T11:23:52.993Z,8.10
2023-04-17T11:26:57.051Z,10.48
2023-04-17T11:33:06.080Z,13.63
2023-04-17T11:36:09.471Z,15.43
2023-04-17T11:39:15.692Z,9.02
2023-04-17T11:42:28.417Z,6.53
2023-04-17T11:45:34.435Z,12.93
2023-04-17T11:48:37.015Z,20.88
2023-04-17T11:51:39.168Z,20.50
2023-04-17T11:54:41.731Z,14.75
2023-04-17T11:57:44.005Z,11.93
2023-04-17T12:01:03.655Z,14.95
2023-04-17T12:04:21.238Z,11.68
2023-04-17T12:07:24.953Z,12.50
2023-04-17T12:10:47.684Z,12.90
2023-04-17T12:13:50.362Z,12.23
2023-04-17T12:16:52.647Z,10.18
2023-04-17T12:19:56.081Z,15.10
2023-04-17T12:23:01.901Z,13.35
2023-04-17T12:26:04.771Z,15.60
2023-04-17T12:29:07.054Z,13.02
2023-04-17T12:32:11.113Z,14.73
2023-04-17T12:35:13.722Z,15.52
2023-04-17T12:38:19.707Z,12.75
2023-04-17T12:41:21.884Z,15.07
2023-04-17T12:44:24.381Z,14.43
2023-04-17T12:47:26.718Z,13.20
2023-04-17T12:50:29.408Z,16.02
2023-04-17T12:53:32.026Z,15.40
2023-04-17T12:56:34.937Z,12.65
2023-04-17T12:59:37.085Z,17.35
2023-04-17T13:02:40.777Z,16.00
2023-04-17T13:05:43.563Z,14.70
2023-04-17T13:08:46.133Z,18.77
2023-04-17T13:11:48.662Z,9.18
2023-04-17T13:14:51.662Z,11.88
2023-04-17T13:17:53.887Z,12.43
2023-04-17T13:20:57.724Z,17.27
2023-04-17T13:23:59.963Z,13.60
2023-04-17T13:27:03.692Z,17.80
2023-04-17T13:30:07.462Z,18.38
2023-04-17T13:33:10.643Z,13.50
2023-04-17T13:36:12.852Z,13.43
2023-04-17T13:39:15.444Z,15.60
2023-04-17T13:42:19.501Z,10.82
2023-04-17T13:45:22.339Z,19.23
2023-04-17T13:48:24.909Z,17.85
2023-04-17T13:51:28.223Z,20.77
2023-04-17T13:54:30.543Z,15.48
2023-04-17T13:57:33.344Z,19.08
2023-04-17T14:00:35.910Z,19.73
2023-04-17T14:03:41.169Z,13.23
2023-04-17T14:06:50.188Z,16.65
2023-04-17T14:09:53.482Z,17.65
2023-04-17T14:12:57.217Z,17.20
2023-04-17T14:15:59.977Z,18.20
2023-04-17T14:19:12.537Z,18.23
2023-04-17T14:22:16.602Z,16.42
2023-04-17T14:25:18.887Z,16.98
2023-04-17T14:28:21.668Z,17.80
2023-04-17T14:31:23.899Z,20.30
2023-04-17T14:34:27.131Z,18.55
2023-04-17T14:37:29.479Z,22.77
2023-04-17T14:40:33.507Z,15.18
2023-04-17T14:43:35.745Z,15.77
2023-04-17T14:46:38.457Z,18.73
2023-04-17T14:49:40.857Z,22.10
2023-04-17T14:52:43.768Z,20.20
2023-04-17T14:55:45.950Z,15.40
2023-04-17T14:58:49.363Z,16.42
2023-04-17T15:01:51.543Z,18.30
2023-04-17T15:04:54.263Z,21.60
2023-04-17T15:07:57.330Z,16.30
2023-04-17T15:10:59.923Z,20.40
2023-04-17T15:14:03.747Z,17.80
2023-04-17T15:17:07.264Z,12.73
2023-04-17T15:20:11.005Z,19.20
2023-04-17T15:23:13.615Z,16.97
2023-04-17T15:26:17.530Z,15.40
2023-04-17T15:29:20.467Z,17.35
2023-04-17T15:32:22.951Z,15.77
2023-04-17T15:35:25.650Z,16.33
2023-04-17T15:38:28.458Z,12.85
2023-04-17T15:41:31.190Z,11.80
2023-04-17T15:44:35.766Z,13.48
2023-04-17T15:47:38.398Z,17.42
2023-04-17T15:50:41.764Z,13.38
2023-04-17T15:53:44.854Z,17.10
2023-04-17T15:56:46.981Z,16.00
2023-04-17T15:59:49.616Z,20.42
2023-04-17T16:02:52.208Z,16.33
2023-04-17T16:05:56.143Z,21.20
2023-04-17T16:08:58.696Z,18.02
2023-04-17T16:12:03.142Z,19.48
2023-04-17T16:15:06.604Z,18.08
2023-04-17T16:18:09.448Z,15.55
2023-04-17T16:21:12.770Z,17.52
2023-04-17T16:24:15.846Z,17.13
2023-04-17T16:27:18.602Z,17.92
2023-04-17T16:30:21.887Z,19.90
2023-04-17T16:33:24.091Z,18.58
2023-04-17T16:36:28.218Z,18.92
2023-04-17T16:39:30.760Z,15.80
2023-04-17T16:42:33.620Z,17.77
2023-04-17T16:45:39.044Z,23.30
2023-04-17T16:48:42.621Z,18.23
2023-04-17T16:51:46.560Z,22.52
2023-04-17T16:57:51.510Z,18.80
2023-04-17T17:00:53.987Z,19.77
2023-04-17T17:03:56.281Z,18.58
2023-04-17T17:06:59.157Z,19.65
2023-04-17T17:10:05.183Z,20.98
2023-04-17T17:13:07.887Z,18.15
2023-04-17T17:16:10.344Z,18.45
2023-04-17T17:19:13.164Z,17.70
2023-04-17T17:22:15.696Z,21.13
2023-04-17T17:25:18.433Z,22.13
2023-04-17T17:28:20.868Z,20.05
2023-04-17T17:31:23.499Z,19.75
2023-04-17T17:34:27.427Z,22.45
2023-04-17T17:37:31.301Z,20.27
2023-04-17T17:40:33.993Z,22.30
2023-04-17T17:43:36.788Z,21.98
2023-04-17T17:46:39.605Z,19.33
2023-04-17T17:49:42.966Z,20.75
2023-04-17T17:52:45.476Z,26.77
2023-04-17T17:55:52.570Z,22.92
2023-04-17T17:58:54.873Z,25.30
2023-04-17T18:01:59.235Z,23.15
2023-04-17T18:05:01.874Z,21.00
2023-04-17T18:08:04.728Z,21.58
2023-04-17T18:11:07.527Z,22.05
2023-04-17T18:14:11.079Z,23.98
2023-04-17T18:17:14.473Z,21.35
2023-04-17T18:20:16.924Z,23.15
2023-04-17T18:23:20.152Z,20.23
2023-04-17T18:26:23.144Z,24.02
2023-04-17T18:29:28.420Z,24.40
2023-04-17T18:32:32.431Z,20.80
2023-04-17T18:35:34.903Z,22.67
2023-04-17T18:38:37.569Z,22.92
2023-04-17T18:41:39.582Z,19.70
2023-04-17T18:44:42.236Z,25.95
2023-04-17T18:47:44.727Z,21.65
2023-04-17T18:50:47.871Z,18.60
2023-04-17T18:53:51.948Z,23.48
2023-04-17T18:56:54.786Z,25.13
2023-04-17T18:59:57.427Z,26.67
2023-04-17T19:03:03.386Z,21.67
2023-04-17T19:06:08.177Z,26.70
2023-04-17T19:09:11.163Z,21.77
2023-04-17T19:12:15.775Z,24.98
2023-04-17T19:15:18.388Z,23.33
2023-04-17T19:18:21.084Z,23.40
2023-04-17T19:21:24.375Z,21.58
2023-04-17T19:24:27.133Z,22.73
2023-04-17T19:27:29.567Z,17.90
2023-04-17T19:30:33.240Z,21.63
2023-04-17T19:33:35.966Z,20.08
2023-04-17T19:36:38.135Z,19.35
2023-04-17T19:39:40.940Z,20.63
2023-04-17T19:42:44.777Z,17.63
2023-04-17T19:45:48.611Z,17.73
2023-04-17T19:48:52.459Z,15.57
2023-04-17T19:51:55.175Z,15.63
2023-04-17T19:54:57.399Z,14.80
2023-04-17T19:57:59.811Z,16.48
2023-04-17T20:01:02.253Z,16.15
2023-04-17T20:04:05.318Z,15.60
2023-04-17T20:07:08.247Z,14.73
2023-04-17T20:10:11.589Z,13.07
2023-04-17T20:13:14.183Z,16.95
2023-04-17T20:16:16.877Z,17.10
2023-04-17T20:19:18.976Z,12.68
2023-04-17T20:22:22.043Z,15.07
2023-04-17T20:25:25.370Z,15.90
2023-04-17T20:28:29.223Z,13.98
2023-04-17T20:31:34.029Z,18.50
2023-04-17T20:34:38.033Z,15.80
2023-04-17T20:37:40.880Z,16.45
2023-04-17T20:40:43.959Z,17.65
2023-04-17T20:43:46.322Z,14.80
2023-04-17T20:46:49.130Z,17.85
2023-04-17T20:49:51.352Z,13.65
2023-04-17T20:52:54.223Z,16.90
2023-04-17T20:55:57.897Z,15.00
2023-04-17T20:59:00.854Z,13.88
2023-04-17T21:02:03.419Z,20.05
2023-04-17T21:05:08.331Z,12.63
2023-04-17T21:08:10.963Z,14.07
2023-04-17T21:11:13.683Z,9.27
2023-04-17T21:14:17.284Z,9.48
2023-04-17T21:17:20.259Z,13.10
2023-04-17T21:20:26.032Z,10.35
2023-04-17T21:23:29.059Z,13.68
2023-04-17T21:26:31.501Z,11.00
2023-04-17T21:29:34.452Z,15.73
2023-04-17T21:32:36.963Z,14.82
2023-04-17T21:35:41.169Z,12.40
2023-04-17T21:38:43.390Z,14.97
2023-04-17T21:41:46.081Z,14.48
2023-04-17T21:44:48.373Z,15.57
2023-04-17T21:47:51.700Z,18.40
2023-04-17T21:51:05.939Z,16.08
2023-04-17T21:54:10.514Z,12.10
2023-04-17T21:57:14.058Z,13.13
2023-04-17T22:00:25.492Z,9.40
2023-04-17T22:03:28.758Z,13.35
2023-04-17T22:09:41.036Z,13.13
2023-04-17T22:12:43.834Z,9.95
2023-04-17T22:15:48.085Z,11.68
2023-04-17T22:21:52.932Z,11.02
2023-04-17T22:24:55.757Z,14.15
2023-04-17T22:27:58.412Z,7.97
2023-04-17T22:31:01.733Z,5.88
2023-04-17T22:34:03.892Z,3.35
2023-04-17T22:37:06.469Z,5.22
2023-04-17T22:40:09.484Z,7.10
2023-04-17T22:43:11.946Z,7.40
2023-04-17T22:46:14.143Z,7.93
2023-04-17T22:49:17.191Z,12.05
2023-04-17T22:52:19.963Z,11.75
2023-04-17T22:55:22.669Z,4.63
2023-04-17T22:58:24.920Z,6.53
2023-04-17T23:01:27.801Z,8.10
2023-04-17T23:04:30.172Z,5.55
2023-04-17T23:07:32.991Z,8.40
2023-04-17T23:10:35.061Z,7.10
2023-04-17T23:13:37.678Z,8.93
2023-04-17T23:16:39.876Z,8.43
2023-04-17T23:19:42.662Z,8.88
2023-04-17T23:22:45.037Z,9.20
2023-04-17T23:25:47.981Z,14.50
2023-04-17T23:28:50.333Z,10.63
2023-04-17T23:31:53.094Z,10.68
2023-04-17T23:34:55.408Z,12.38
2023-04-17T23:37:58.055Z,7.22
2023-04-17T23:41:00.141Z,9.13
2023-04-17T23:44:04.526Z,11.07
2023-04-17T23:47:06.637Z,9.17
2023-04-17T23:50:09.527Z,9.38
2023-04-17T23:53:11.813Z,6.97
2023-04-17T23:56:14.390Z,7.07
2023-04-17T23:59:16.984Z,10.13
